Tower Bridge — A8ER5 — position and weather

sailwx.info

Track history (hours):
 
Tides and Currents Weather Stations Pressure Air Temp Water Temp Dewpoint Dewpoint Depression Visibility Wind Speed Wind Dir Waves Ship Positions

Tower Bridge

Last reported at 2018-Jan-06 17:11 UTC. Time now 2018-Jan-24 12:00 UTC.
Position N 09°11' W 079°52'.
Warning: this ship's position is 17 days out of date.

Length 183 m; draft 11.4 m.

Type: Tanker. MMSI: 636012318.

Date/timePositionNaut miles runAvg speedWind from/ knotsBaromVisibWave heightAir tempDewpointWater temp
2018-Jan-06 17:11N 09°11' W 079°52'210.2
2018-Jan-06 17:00N 09°12' W 079°54'3 6.2
2018-Jan-06 16:30N 09°14' W 079°56'0 0.3
2018-Jan-06 16:00N 09°14' W 079°56'0 0.0
2018-Jan-06 15:24N 09°14' W 079°56'0 0.0
2018-Jan-06 15:00N 09°14' W 079°56'0 0.1
2018-Jan-06 14:30N 09°14' W 079°56'0 0.0
2018-Jan-06 14:00N 09°14' W 079°56'0 0.1
2018-Jan-06 13:30N 09°14' W 079°56'0 0.0
2018-Jan-06 13:00N 09°14' W 079°56'0 0.2
2018-Jan-06 12:30N 09°14' W 079°56'0 0.0
2018-Jan-06 12:00N 09°14' W 079°56'0 0.1
2018-Jan-06 11:30N 09°14' W 079°56'0 0.0
2018-Jan-06 10:57N 09°14' W 079°56'0 0.1
2018-Jan-06 10:30N 09°14' W 079°56'1 1.7
2018-Jan-06 10:00N 09°15' W 079°55'1 2.8
2018-Jan-06 09:31N 09°16' W 079°55'0 0.4
2018-Jan-06 09:01N 09°16' W 079°55'0 0.5
2018-Jan-06 08:31N 09°17' W 079°55'0 0.5
2018-Jan-06 08:01N 09°17' W 079°55'1 2.2
2018-Jan-06 07:31N 09°18' W 079°55'3 5.7
2018-Jan-06 07:01N 09°21' W 079°55'3 6.2
2018-Jan-06 06:30N 09°24' W 079°55'3 6.0
2018-Jan-06 06:01N 09°27' W 079°55'1 1.6
2018-Jan-06 05:29N 09°27' W 079°56'0 0.2
2018-Jan-06 04:59N 09°27' W 079°56'0 0.0
2018-Jan-06 04:29N 09°27' W 079°56'0 0.0
2018-Jan-06 03:59N 09°27' W 079°56'0 0.0
2018-Jan-06 03:29N 09°27' W 079°56'0 0.1
2018-Jan-06 02:59N 09°27' W 079°56'1 2.2
2018-Jan-06 02:30N 09°27' W 079°55'3 6.1
2018-Jan-06 02:01N 09°30' W 079°54'3 6.7
2018-Jan-06 01:30N 09°33' W 079°53'5 8.4
2018-Jan-06 00:58N 09°38' W 079°52'  
2017-Dec-31 15:56N 29°32' W 094°54'510.1
2017-Dec-31 15:25N 29°36' W 094°57'4 9.8
2017-Dec-31 15:00N 29°40' W 094°59'  
2017-Dec-28 00:41N 29°44' W 095°01'0 0.0
2017-Dec-28 00:29N 29°44' W 095°01'0 0.0
2017-Dec-27 23:57N 29°44' W 095°01'0 0.6
2017-Dec-27 23:30N 29°43' W 095°01'3 5.7
2017-Dec-27 23:01N 29°41' W 094°59'  
Track history (hours):
 
Tides and Currents Weather Stations Pressure Air Temp Water Temp Dewpoint Dewpoint Depression Visibility Wind Speed Wind Dir Waves Ship Positions

Tower Bridge

Last reported at 2018-Jan-06 17:11 UTC. Time now 2018-Jan-24 12:00 UTC.
Position N 09°11' W 079°52'.
Warning: this ship's position is 17 days out of date.

Length 183 m; draft 11.4 m.

Type: Tanker. MMSI: 636012318.

Date/timePositionNaut miles runAvg speedWind from/ knotsBaromVisibWave heightAir tempDewpointWater temp
2018-Jan-06 17:11N 09°11' W 079°52'210.2
2018-Jan-06 17:00N 09°12' W 079°54'3 6.2
2018-Jan-06 16:30N 09°14' W 079°56'0 0.3
2018-Jan-06 16:00N 09°14' W 079°56'0 0.0
2018-Jan-06 15:24N 09°14' W 079°56'0 0.0
2018-Jan-06 15:00N 09°14' W 079°56'0 0.1
2018-Jan-06 14:30N 09°14' W 079°56'0 0.0
2018-Jan-06 14:00N 09°14' W 079°56'0 0.1
2018-Jan-06 13:30N 09°14' W 079°56'0 0.0
2018-Jan-06 13:00N 09°14' W 079°56'0 0.2
2018-Jan-06 12:30N 09°14' W 079°56'0 0.0
2018-Jan-06 12:00N 09°14' W 079°56'0 0.1
2018-Jan-06 11:30N 09°14' W 079°56'0 0.0
2018-Jan-06 10:57N 09°14' W 079°56'0 0.1
2018-Jan-06 10:30N 09°14' W 079°56'1 1.7
2018-Jan-06 10:00N 09°15' W 079°55'1 2.8
2018-Jan-06 09:31N 09°16' W 079°55'0 0.4
2018-Jan-06 09:01N 09°16' W 079°55'0 0.5
2018-Jan-06 08:31N 09°17' W 079°55'0 0.5
2018-Jan-06 08:01N 09°17' W 079°55'1 2.2
2018-Jan-06 07:31N 09°18' W 079°55'3 5.7
2018-Jan-06 07:01N 09°21' W 079°55'3 6.2
2018-Jan-06 06:30N 09°24' W 079°55'3 6.0
2018-Jan-06 06:01N 09°27' W 079°55'1 1.6
2018-Jan-06 05:29N 09°27' W 079°56'0 0.2
2018-Jan-06 04:59N 09°27' W 079°56'0 0.0
2018-Jan-06 04:29N 09°27' W 079°56'0 0.0
2018-Jan-06 03:59N 09°27' W 079°56'0 0.0
2018-Jan-06 03:29N 09°27' W 079°56'0 0.1
2018-Jan-06 02:59N 09°27' W 079°56'1 2.2
2018-Jan-06 02:30N 09°27' W 079°55'3 6.1
2018-Jan-06 02:01N 09°30' W 079°54'3 6.7
2018-Jan-06 01:30N 09°33' W 079°53'5 8.4
2018-Jan-06 00:58N 09°38' W 079°52'  
2017-Dec-31 15:56N 29°32' W 094°54'510.1
2017-Dec-31 15:25N 29°36' W 094°57'4 9.8
2017-Dec-31 15:00N 29°40' W 094°59'  
2017-Dec-28 00:41N 29°44' W 095°01'0 0.0
2017-Dec-28 00:29N 29°44' W 095°01'0 0.0
2017-Dec-27 23:57N 29°44' W 095°01'0 0.6
2017-Dec-27 23:30N 29°43' W 095°01'3 5.7
2017-Dec-27 23:01N 29°41' W 094°59'  

Dump ship's entire track history